CSCL Europe — P3VZ9 — position and weather

sailwx.info

Track history (hours):
 
Tides and Currents Weather Stations Pressure Air Temp Water Temp Dewpoint Dewpoint Depression Visibility Wind Speed Wind Dir Waves Ship Positions

CSCL Europe

Last reported at 2018-Aug-16 09:47 UTC. Time now 2018-Aug-19 23:11 UTC.
Position N 01°29' E 104°32'.

Length 334 m; draft 10.5 m.

Type: Cargo ship. MMSI: 212175000.

Date/timePositionNaut miles runAvg speedWind from/ knotsBaromVisibWave heightAir tempDewpointWater temp
2018-Aug-16 09:47N 01°29' E 104°32'516.5
2018-Aug-16 09:30N 01°25' E 104°28'814.9
2018-Aug-16 08:59N 01°20' E 104°23'713.9
2018-Aug-16 08:28N 01°16' E 104°17'714.2
2018-Aug-16 07:58N 01°15' E 104°10'614.3
2018-Aug-16 07:30N 01°14' E 104°03'815.3
2018-Aug-16 07:00N 01°13' E 103°56'714.5
2018-Aug-16 06:30N 01°12' E 103°49'4 8.0
2018-Aug-16 06:00N 01°16' E 103°47'1 1.1
2018-Aug-16 05:30N 01°16' E 103°47'0 0.0
2018-Aug-16 04:55N 01°16' E 103°47'0 0.0
2018-Aug-16 04:30N 01°16' E 103°47'0 0.0
2018-Aug-16 03:56N 01°16' E 103°47'0 0.0
2018-Aug-16 03:30N 01°16' E 103°47'0 0.0
2018-Aug-16 02:59N 01°16' E 103°47'0 0.0
2018-Aug-16 02:25N 01°16' E 103°47'0 0.0
2018-Aug-16 02:00N 01°16' E 103°47'0 0.0
2018-Aug-16 01:26N 01°16' E 103°47'0 0.0
2018-Aug-16 00:58N 01°16' E 103°47'0 0.0
2018-Aug-16 00:30N 01°16' E 103°47'0 0.0
2018-Aug-16 00:00N 01°16' E 103°47'0 0.0
2018-Aug-15 23:30N 01°16' E 103°47'0 0.0
2018-Aug-15 23:00N 01°16' E 103°47'0 0.0
2018-Aug-15 22:28N 01°16' E 103°47'0 0.0
2018-Aug-15 22:00N 01°16' E 103°47'0 0.0
2018-Aug-15 21:30N 01°16' E 103°47'0 0.0
2018-Aug-15 20:58N 01°16' E 103°47'0 0.0
2018-Aug-15 20:28N 01°16' E 103°47'0 0.0
2018-Aug-15 20:00N 01°16' E 103°47'0 0.0
2018-Aug-15 19:30N 01°16' E 103°47'0 0.0
2018-Aug-15 18:57N 01°16' E 103°47'0 0.0
2018-Aug-15 18:30N 01°16' E 103°47'0 0.0
2018-Aug-15 18:00N 01°16' E 103°47'0 0.0
2018-Aug-15 17:30N 01°16' E 103°47'0 0.0
2018-Aug-15 17:00N 01°16' E 103°47'0 0.0
2018-Aug-15 16:30N 01°16' E 103°47'0 0.0
2018-Aug-15 15:58N 01°16' E 103°47'0 0.0
2018-Aug-15 15:31N 01°16' E 103°47'0 0.0
2018-Aug-15 14:59N 01°16' E 103°47'0 0.0
2018-Aug-15 14:29N 01°16' E 103°47'1 1.5
2018-Aug-15 14:00N 01°16' E 103°46'3 6.8
2018-Aug-15 13:30N 01°15' E 103°43'3 5.9
2018-Aug-15 13:00N 01°12' E 103°41'0 0.2
2018-Aug-15 12:30N 01°12' E 103°41'0 0.1
2018-Aug-15 12:00N 01°12' E 103°41'0 0.0
2018-Aug-15 11:25N 01°12' E 103°41'0 0.0
2018-Aug-15 10:54N 01°12' E 103°41'0 0.0
2018-Aug-15 10:28N 01°12' E 103°41'0 0.1
2018-Aug-15 10:00N 01°12' E 103°41'0 0.0
2018-Aug-15 09:30N 01°12' E 103°41'0 0.1
2018-Aug-15 09:00N 01°12' E 103°42'0 0.0
2018-Aug-15 08:22N 01°12' E 103°42'0 0.2
2018-Aug-15 07:58N 01°12' E 103°42'0 0.1
2018-Aug-15 07:25N 01°12' E 103°42'1 1.8
2018-Aug-15 07:00N 01°13' E 103°41'3 6.3
2018-Aug-15 06:30N 01°12' E 103°38'4 8.0
2018-Aug-15 06:00N 01°11' E 103°34'2 3.7
2018-Aug-15 05:30N 01°10' E 103°33'3 5.0
2018-Aug-15 04:59N 01°09' E 103°30'2 4.9
2018-Aug-15 04:30N 01°10' E 103°28'4 8.4
2018-Aug-15 04:00N 01°12' E 103°24'5 9.6
2018-Aug-15 03:30N 01°15' E 103°21'5 9.3
2018-Aug-15 02:59N 01°19' E 103°17'4 8.7
2018-Aug-15 02:30N 01°21' E 103°14'5 8.2
2018-Aug-15 01:50N 01°25' E 103°10'3 8.0
2018-Aug-15 01:29N 01°26' E 103°07'4 7.7
2018-Aug-15 00:58N 01°28' E 103°04'4 7.4
2018-Aug-15 00:29N 01°30' E 103°01'  
Track history (hours):
 
Tides and Currents Weather Stations Pressure Air Temp Water Temp Dewpoint Dewpoint Depression Visibility Wind Speed Wind Dir Waves Ship Positions

CSCL Europe

Last reported at 2018-Aug-16 09:47 UTC. Time now 2018-Aug-19 23:11 UTC.
Position N 01°29' E 104°32'.

Length 334 m; draft 10.5 m.

Type: Cargo ship. MMSI: 212175000.

Date/timePositionNaut miles runAvg speedWind from/ knotsBaromVisibWave heightAir tempDewpointWater temp
2018-Aug-16 09:47N 01°29' E 104°32'516.5
2018-Aug-16 09:30N 01°25' E 104°28'814.9
2018-Aug-16 08:59N 01°20' E 104°23'713.9
2018-Aug-16 08:28N 01°16' E 104°17'714.2
2018-Aug-16 07:58N 01°15' E 104°10'614.3
2018-Aug-16 07:30N 01°14' E 104°03'815.3
2018-Aug-16 07:00N 01°13' E 103°56'714.5
2018-Aug-16 06:30N 01°12' E 103°49'4 8.0
2018-Aug-16 06:00N 01°16' E 103°47'1 1.1
2018-Aug-16 05:30N 01°16' E 103°47'0 0.0
2018-Aug-16 04:55N 01°16' E 103°47'0 0.0
2018-Aug-16 04:30N 01°16' E 103°47'0 0.0
2018-Aug-16 03:56N 01°16' E 103°47'0 0.0
2018-Aug-16 03:30N 01°16' E 103°47'0 0.0
2018-Aug-16 02:59N 01°16' E 103°47'0 0.0
2018-Aug-16 02:25N 01°16' E 103°47'0 0.0
2018-Aug-16 02:00N 01°16' E 103°47'0 0.0
2018-Aug-16 01:26N 01°16' E 103°47'0 0.0
2018-Aug-16 00:58N 01°16' E 103°47'0 0.0
2018-Aug-16 00:30N 01°16' E 103°47'0 0.0
2018-Aug-16 00:00N 01°16' E 103°47'0 0.0
2018-Aug-15 23:30N 01°16' E 103°47'0 0.0
2018-Aug-15 23:00N 01°16' E 103°47'0 0.0
2018-Aug-15 22:28N 01°16' E 103°47'0 0.0
2018-Aug-15 22:00N 01°16' E 103°47'0 0.0
2018-Aug-15 21:30N 01°16' E 103°47'0 0.0
2018-Aug-15 20:58N 01°16' E 103°47'0 0.0
2018-Aug-15 20:28N 01°16' E 103°47'0 0.0
2018-Aug-15 20:00N 01°16' E 103°47'0 0.0
2018-Aug-15 19:30N 01°16' E 103°47'0 0.0
2018-Aug-15 18:57N 01°16' E 103°47'0 0.0
2018-Aug-15 18:30N 01°16' E 103°47'0 0.0
2018-Aug-15 18:00N 01°16' E 103°47'0 0.0
2018-Aug-15 17:30N 01°16' E 103°47'0 0.0
2018-Aug-15 17:00N 01°16' E 103°47'0 0.0
2018-Aug-15 16:30N 01°16' E 103°47'0 0.0
2018-Aug-15 15:58N 01°16' E 103°47'0 0.0
2018-Aug-15 15:31N 01°16' E 103°47'0 0.0
2018-Aug-15 14:59N 01°16' E 103°47'0 0.0
2018-Aug-15 14:29N 01°16' E 103°47'1 1.5
2018-Aug-15 14:00N 01°16' E 103°46'3 6.8
2018-Aug-15 13:30N 01°15' E 103°43'3 5.9
2018-Aug-15 13:00N 01°12' E 103°41'0 0.2
2018-Aug-15 12:30N 01°12' E 103°41'0 0.1
2018-Aug-15 12:00N 01°12' E 103°41'0 0.0
2018-Aug-15 11:25N 01°12' E 103°41'0 0.0
2018-Aug-15 10:54N 01°12' E 103°41'0 0.0
2018-Aug-15 10:28N 01°12' E 103°41'0 0.1
2018-Aug-15 10:00N 01°12' E 103°41'0 0.0
2018-Aug-15 09:30N 01°12' E 103°41'0 0.1
2018-Aug-15 09:00N 01°12' E 103°42'0 0.0
2018-Aug-15 08:22N 01°12' E 103°42'0 0.2
2018-Aug-15 07:58N 01°12' E 103°42'0 0.1
2018-Aug-15 07:25N 01°12' E 103°42'1 1.8
2018-Aug-15 07:00N 01°13' E 103°41'3 6.3
2018-Aug-15 06:30N 01°12' E 103°38'4 8.0
2018-Aug-15 06:00N 01°11' E 103°34'2 3.7
2018-Aug-15 05:30N 01°10' E 103°33'3 5.0
2018-Aug-15 04:59N 01°09' E 103°30'2 4.9
2018-Aug-15 04:30N 01°10' E 103°28'4 8.4
2018-Aug-15 04:00N 01°12' E 103°24'5 9.6
2018-Aug-15 03:30N 01°15' E 103°21'5 9.3
2018-Aug-15 02:59N 01°19' E 103°17'4 8.7
2018-Aug-15 02:30N 01°21' E 103°14'5 8.2
2018-Aug-15 01:50N 01°25' E 103°10'3 8.0
2018-Aug-15 01:29N 01°26' E 103°07'4 7.7
2018-Aug-15 00:58N 01°28' E 103°04'4 7.4
2018-Aug-15 00:29N 01°30' E 103°01'  

Dump ship's entire track history